createdAt,value
2023-03-15T14:41:13.743Z,1000.63
2023-03-15T14:41:24.906Z,1000.60
2023-03-15T14:41:35.064Z,1000.64
2023-03-15T14:41:45.210Z,1000.61
2023-03-15T14:41:55.289Z,1000.68
2023-03-15T14:42:05.375Z,1000.64
2023-03-15T14:42:15.510Z,1000.60
2023-03-15T14:42:25.584Z,1000.63
2023-03-15T14:42:35.767Z,1000.64
2023-03-15T14:42:45.850Z,1000.59
2023-03-15T14:42:56.002Z,1000.61
2023-03-15T14:43:06.166Z,1000.62
2023-03-15T14:43:16.320Z,1000.64
2023-03-15T14:43:26.359Z,1000.65
2023-03-15T14:43:36.469Z,1000.63
2023-03-15T14:43:47.292Z,1000.65
2023-03-15T14:43:56.709Z,1000.64
2023-03-15T14:44:06.789Z,1000.61
2023-03-15T15:07:24.079Z,1002.43
2023-03-15T15:07:34.506Z,1002.49
2023-03-15T15:07:44.729Z,1002.43
2023-03-15T15:07:55.077Z,1002.34
2023-03-15T15:08:06.038Z,1002.33
2023-03-15T15:08:15.179Z,1002.21
2023-03-15T15:08:25.255Z,1002.11
2023-03-15T15:08:35.303Z,1002.02
2023-03-15T15:08:45.467Z,1001.98
2023-03-15T15:08:55.515Z,1001.96
2023-03-15T15:09:05.672Z,1001.86
2023-03-15T15:09:15.744Z,1001.86
2023-03-15T15:09:25.845Z,1001.76
2023-03-15T15:09:35.926Z,1001.69
2023-03-15T15:09:46.084Z,1001.60
2023-03-15T15:09:56.166Z,1001.58
2023-03-15T15:10:06.261Z,1001.59
2023-03-15T15:10:17.308Z,1001.55
2023-03-15T15:10:26.588Z,1001.66
2023-03-15T15:10:36.820Z,1001.70
2023-03-15T15:10:46.880Z,1001.69
2023-03-15T15:10:56.955Z,1001.79
2023-03-15T15:11:07.113Z,1001.85
2023-03-15T15:11:17.231Z,1001.93
2023-03-15T15:11:28.504Z,1001.97
2023-03-15T15:11:37.746Z,1001.99
2023-03-15T15:11:47.596Z,1002.04
2023-03-15T15:11:58.646Z,1002.06
2023-03-15T15:12:07.984Z,1002.14
2023-03-15T15:12:18.079Z,1002.17
2023-03-15T15:12:28.218Z,1002.18
2023-03-15T15:12:38.272Z,1002.24
2023-03-15T15:12:56.360Z,1002.30
2023-03-15T15:13:09.393Z,1002.33
2023-03-15T15:13:15.045Z,1002.43
2023-03-15T15:13:25.058Z,1002.53
2023-03-15T15:13:35.193Z,1002.65
2023-03-15T15:13:45.418Z,1002.75
2023-03-15T15:13:55.419Z,1002.79
2023-03-15T15:14:05.512Z,1002.77
2023-03-15T15:14:16.363Z,1002.78
2023-03-15T15:14:25.775Z,1002.75
2023-03-15T15:14:35.867Z,1002.69
2023-03-15T15:14:46.100Z,1002.65
2023-03-15T15:14:56.817Z,1002.58
2023-03-15T15:15:07.344Z,1002.53
2023-03-15T15:15:16.503Z,1002.48
2023-03-15T15:15:26.628Z,1002.41
2023-03-15T15:15:51.754Z,1002.35
2023-03-15T15:15:59.943Z,1002.28
2023-03-15T15:16:05.492Z,1002.19
2023-03-15T15:16:15.405Z,1002.10
2023-03-15T15:16:25.668Z,1002.14
2023-03-15T15:16:35.653Z,1002.08
2023-03-15T15:16:45.778Z,1002.09
2023-03-15T15:16:57.861Z,1002.06
2023-03-15T15:17:06.165Z,1002.08
2023-03-15T15:17:16.295Z,1002.06
2023-03-15T15:17:26.320Z,1001.97
